Birsk, Russia
Current Conditions -  °F | °C
As of 11:00 PM on Saturday 25 Oct 2014 (Local Time) from UWUU Reporting Station
Broken Clouds Broken Clouds  
Wind Chill:   Ceiling: 2200
Heat Index: 16°   Visibility: 6mi
Dew Point:   Wind: 16mph
Humidity: 73%   Direction: 350°N
Pressure: 30.24"   Gusts: NA
Location:  55.42°N, 55.54°E
Report Text: UWUU 251800Z 35007MPS 9999 BKN022 M09/M13 Q1024 32451048 NOSIGRMK QFE755/1007
Loading
Personal Weather Stations






























Interactive Weather Map
Tropical Storm Tracking
New forecast layout! Learn more

10-Day Weather Forecast

Advertisements
Track Severe Weather on mobile